createdAt,value
2022-11-14T00:01:40.943Z,13.70
2022-11-14T00:04:29.683Z,14.40
2022-11-14T00:07:16.663Z,13.90
2022-11-14T00:10:03.725Z,13.80
2022-11-14T00:12:50.231Z,22.50
2022-11-14T00:15:36.652Z,21.20
2022-11-14T00:18:23.719Z,20.70
2022-11-14T00:21:10.465Z,17.70
2022-11-14T00:23:57.040Z,17.20
2022-11-14T00:26:43.528Z,15.90
2022-11-14T00:29:30.100Z,21.50
2022-11-14T00:32:16.746Z,18.50
2022-11-14T00:35:02.975Z,17.90
2022-11-14T00:37:50.222Z,17.60
2022-11-14T00:40:36.557Z,22.10
2022-11-14T00:43:23.016Z,19.40
2022-11-14T00:46:09.392Z,18.60
2022-11-14T00:48:55.825Z,17.90
2022-11-14T00:51:42.610Z,16.90
2022-11-14T00:54:29.054Z,18.30
2022-11-14T00:57:15.711Z,16.00
2022-11-14T01:00:01.890Z,16.50
2022-11-14T01:02:48.615Z,16.90
2022-11-14T01:05:41.422Z,18.50
2022-11-14T01:08:28.488Z,20.80
2022-11-14T01:11:19.262Z,23.40
2022-11-14T01:14:09.275Z,17.60
2022-11-14T01:16:55.550Z,18.90
2022-11-14T01:19:43.407Z,17.30
2022-11-14T01:22:30.928Z,16.20
2022-11-14T01:25:17.421Z,15.50
2022-11-14T01:28:14.042Z,15.40
2022-11-14T01:31:16.345Z,15.80
2022-11-14T01:34:03.109Z,22.00
2022-11-14T01:36:49.359Z,19.80
2022-11-14T01:39:35.576Z,20.10
2022-11-14T01:42:26.896Z,27.00
2022-11-14T01:45:42.195Z,21.80
2022-11-14T01:48:45.390Z,24.70
2022-11-14T01:52:24.269Z,21.10
2022-11-14T01:55:11.022Z,20.60
2022-11-14T01:57:58.092Z,19.20
2022-11-14T02:00:44.961Z,17.10
2022-11-14T02:03:32.031Z,25.80
2022-11-14T02:06:21.263Z,27.30
2022-11-14T02:09:08.527Z,20.80
2022-11-14T02:11:58.638Z,23.80
2022-11-14T02:14:48.368Z,25.60
2022-11-14T02:17:35.181Z,25.10
2022-11-14T02:20:28.626Z,20.80
2022-11-14T02:23:17.327Z,17.30
2022-11-14T02:26:03.911Z,15.00
2022-11-14T02:28:50.517Z,12.10
2022-11-14T02:31:37.009Z,10.90
2022-11-14T02:34:23.703Z,11.00
2022-11-14T02:37:10.153Z,11.50
2022-11-14T02:39:56.484Z,13.10
2022-11-14T02:42:43.345Z,11.20
2022-11-14T02:45:30.151Z,11.00
2022-11-14T02:48:16.624Z,9.00
2022-11-14T02:51:03.083Z,10.20
2022-11-14T02:53:49.474Z,9.90
2022-11-14T02:56:36.182Z,10.20
2022-11-14T02:59:22.854Z,8.30
2022-11-14T03:02:09.634Z,11.50
2022-11-14T03:04:56.108Z,14.00
2022-11-14T03:07:42.462Z,13.60
2022-11-14T03:10:28.796Z,12.90
2022-11-14T03:13:15.456Z,11.00
2022-11-14T03:16:07.664Z,10.60
2022-11-14T03:18:53.860Z,15.80
2022-11-14T03:21:40.319Z,22.10
2022-11-14T03:24:27.128Z,32.70
2022-11-14T03:27:13.733Z,53.10
2022-11-14T03:30:00.449Z,54.90
2022-11-14T03:32:47.562Z,45.40
2022-11-14T03:35:34.062Z,40.90
2022-11-14T03:38:24.591Z,34.40
2022-11-14T03:41:10.959Z,24.30
2022-11-14T03:43:57.544Z,21.50
2022-11-14T03:46:44.213Z,25.50
2022-11-14T03:49:30.775Z,37.90
2022-11-14T03:52:17.633Z,32.90
2022-11-14T03:55:04.301Z,24.40
2022-11-14T03:57:50.705Z,17.90
2022-11-14T04:00:37.527Z,13.70
2022-11-14T04:03:25.204Z,9.80
2022-11-14T04:06:11.819Z,19.00
2022-11-14T04:08:58.388Z,37.70
2022-11-14T04:11:44.752Z,19.90
2022-11-14T04:14:31.196Z,13.50
2022-11-14T04:17:17.870Z,10.50
2022-11-14T04:20:05.199Z,10.20
2022-11-14T04:22:51.786Z,10.50
2022-11-14T04:25:38.188Z,10.00
2022-11-14T04:28:24.896Z,10.30
2022-11-14T04:31:11.267Z,8.90
2022-11-14T04:33:57.695Z,8.40
2022-11-14T04:36:44.691Z,7.40
2022-11-14T04:39:31.319Z,8.40
2022-11-14T04:42:17.816Z,8.30
2022-11-14T04:45:04.992Z,8.50
2022-11-14T04:47:52.031Z,9.70
2022-11-14T04:50:38.826Z,9.30
2022-11-14T04:53:25.053Z,9.40
2022-11-14T04:56:11.409Z,9.40
2022-11-14T04:58:57.969Z,9.50
2022-11-14T05:01:44.371Z,8.50
2022-11-14T05:04:34.874Z,9.10
2022-11-14T05:07:22.170Z,8.50
2022-11-14T05:10:10.116Z,8.60
2022-11-14T05:12:56.889Z,8.70
2022-11-14T05:15:43.559Z,7.70
2022-11-14T05:18:30.212Z,7.60
2022-11-14T05:21:17.258Z,7.80
2022-11-14T05:24:04.466Z,9.70
2022-11-14T05:26:50.796Z,8.90
2022-11-14T05:29:37.272Z,8.70
2022-11-14T05:32:24.607Z,8.70
2022-11-14T05:35:11.077Z,7.70
2022-11-14T05:37:59.939Z,8.20
2022-11-14T05:40:47.015Z,8.30
2022-11-14T05:43:34.079Z,7.90
2022-11-14T05:46:20.700Z,7.70
2022-11-14T05:49:07.305Z,8.30
2022-11-14T05:51:53.975Z,10.70
2022-11-14T05:54:40.521Z,10.90
2022-11-14T05:57:26.964Z,10.20
2022-11-14T06:00:14.296Z,9.70
2022-11-14T06:03:00.699Z,10.50
2022-11-14T06:05:47.352Z,9.80
2022-11-14T06:08:35.024Z,9.00
2022-11-14T06:11:21.778Z,11.10
2022-11-14T06:14:10.921Z,9.40
2022-11-14T06:17:28.167Z,8.60
2022-11-14T06:20:15.716Z,7.30
2022-11-14T06:23:02.450Z,6.80
2022-11-14T06:25:49.096Z,7.60
2022-11-14T06:28:35.693Z,7.50
2022-11-14T06:31:23.527Z,7.40
2022-11-14T06:34:13.002Z,7.60
2022-11-14T06:36:59.709Z,8.50
2022-11-14T06:39:46.630Z,8.20
2022-11-14T06:42:33.534Z,8.00
2022-11-14T06:45:19.900Z,7.70
2022-11-14T06:48:07.100Z,7.60
2022-11-14T06:50:54.919Z,8.50
2022-11-14T06:53:42.331Z,7.80
2022-11-14T06:56:29.079Z,8.00
2022-11-14T06:59:16.030Z,7.30
2022-11-14T07:02:03.079Z,6.10
2022-11-14T07:04:49.380Z,6.50
2022-11-14T07:07:36.169Z,7.50
2022-11-14T07:10:22.798Z,7.60
2022-11-14T07:13:14.271Z,8.20
2022-11-14T07:16:00.954Z,8.90
2022-11-14T07:18:47.853Z,9.20
2022-11-14T07:21:35.597Z,10.70
2022-11-14T07:24:22.243Z,12.60
2022-11-14T07:27:11.061Z,14.90
2022-11-14T07:29:57.364Z,12.50
2022-11-14T07:32:43.657Z,11.20
2022-11-14T07:35:30.215Z,10.70
2022-11-14T07:38:16.952Z,10.10
2022-11-14T07:41:12.385Z,12.80
2022-11-14T07:43:58.924Z,12.60
2022-11-14T07:46:45.480Z,10.70
2022-11-14T07:49:31.740Z,11.60
2022-11-14T07:52:18.276Z,9.10
2022-11-14T07:55:05.028Z,8.70
2022-11-14T07:57:55.052Z,8.90
2022-11-14T08:00:41.516Z,10.10
2022-11-14T08:03:28.843Z,11.30
2022-11-14T08:06:17.043Z,11.50
2022-11-14T08:09:03.557Z,9.80
2022-11-14T08:11:50.168Z,8.90
2022-11-14T08:14:36.644Z,9.40
2022-11-14T08:17:23.616Z,10.20
2022-11-14T08:20:10.517Z,9.70
2022-11-14T08:23:05.238Z,8.90
2022-11-14T08:25:51.833Z,8.00
2022-11-14T08:28:38.147Z,8.70
2022-11-14T08:31:25.296Z,9.30
2022-11-14T08:34:11.937Z,9.50
2022-11-14T08:36:59.174Z,9.30
2022-11-14T08:39:45.386Z,8.70
2022-11-14T08:42:31.880Z,10.00
2022-11-14T08:45:18.220Z,9.50
2022-11-14T08:48:05.873Z,9.20
2022-11-14T08:50:52.238Z,7.40
2022-11-14T08:53:38.920Z,7.60
2022-11-14T08:56:25.593Z,7.70
2022-11-14T08:59:12.239Z,8.00
2022-11-14T09:01:58.977Z,7.50
2022-11-14T09:04:45.626Z,8.00
2022-11-14T09:07:32.969Z,7.60
2022-11-14T09:10:19.772Z,8.50
2022-11-14T09:13:06.506Z,8.60
2022-11-14T09:15:53.169Z,7.40
2022-11-14T09:18:39.806Z,7.40
2022-11-14T09:21:26.556Z,8.30
2022-11-14T09:24:12.811Z,7.60
2022-11-14T09:26:59.401Z,7.60
2022-11-14T09:29:46.050Z,7.30
2022-11-14T09:32:32.716Z,6.80
2022-11-14T09:35:18.970Z,6.90
2022-11-14T09:38:08.559Z,7.90
2022-11-14T09:41:23.777Z,9.00
2022-11-14T09:44:10.329Z,9.20
2022-11-14T09:47:04.920Z,8.90
2022-11-14T09:49:56.034Z,8.30
2022-11-14T09:53:10.660Z,8.90
2022-11-14T09:55:58.583Z,9.20
2022-11-14T09:58:44.941Z,11.20
2022-11-14T10:01:40.365Z,10.50
2022-11-14T10:04:45.631Z,10.70
2022-11-14T10:07:38.149Z,15.60
2022-11-14T10:10:38.991Z,18.10
2022-11-14T10:13:40.808Z,17.60
2022-11-14T10:16:45.508Z,17.60
2022-11-14T10:19:42.577Z,17.20
2022-11-14T10:23:01.314Z,16.00
2022-11-14T10:26:14.665Z,16.70
2022-11-14T10:29:00.823Z,16.30
2022-11-14T10:32:06.367Z,14.20
2022-11-14T10:35:02.413Z,13.10
2022-11-14T10:37:51.884Z,12.60
2022-11-14T10:40:45.801Z,12.70
2022-11-14T10:43:32.149Z,12.50
2022-11-14T10:46:28.673Z,13.30
2022-11-14T10:49:23.818Z,12.10
2022-11-14T10:52:15.830Z,13.50
2022-11-14T10:55:13.213Z,12.70
2022-11-14T10:57:59.547Z,12.40
2022-11-14T11:00:46.111Z,12.70
2022-11-14T11:03:43.861Z,12.00
2022-11-14T11:06:30.421Z,12.60
2022-11-14T11:09:46.979Z,13.70
2022-11-14T11:12:53.838Z,13.20
2022-11-14T11:15:42.535Z,12.80
2022-11-14T11:18:30.723Z,13.20
2022-11-14T11:21:23.040Z,13.70
2022-11-14T11:24:10.112Z,14.00
2022-11-14T11:27:24.233Z,14.70
2022-11-14T11:30:23.477Z,13.70
2022-11-14T11:33:22.916Z,13.60
2022-11-14T11:36:17.780Z,14.90
2022-11-14T11:39:04.346Z,15.50
2022-11-14T11:42:11.049Z,14.10
2022-11-14T11:45:02.292Z,14.30
2022-11-14T11:48:04.089Z,13.80
2022-11-14T11:50:50.735Z,13.90
2022-11-14T11:53:41.277Z,14.30
2022-11-14T11:56:31.669Z,14.70
2022-11-14T11:59:37.890Z,15.40
2022-11-14T12:02:28.344Z,14.40
2022-11-14T12:05:18.107Z,14.20
2022-11-14T12:08:12.242Z,13.60
2022-11-14T12:11:04.240Z,15.90
2022-11-14T12:13:56.614Z,15.20
2022-11-14T12:16:55.618Z,14.50
2022-11-14T12:20:05.549Z,14.90
2022-11-14T12:23:25.170Z,14.90
2022-11-14T12:26:20.393Z,13.00
2022-11-14T12:29:25.814Z,13.70
2022-11-14T12:32:18.204Z,13.60
2022-11-14T12:35:10.174Z,13.60
2022-11-14T12:37:59.995Z,12.40
2022-11-14T12:40:54.114Z,13.60
2022-11-14T12:43:43.368Z,12.80
2022-11-14T12:47:05.093Z,11.90
2022-11-14T12:49:54.546Z,11.30
2022-11-14T12:52:41.165Z,11.60
2022-11-14T12:55:30.541Z,11.10
2022-11-14T12:58:22.363Z,10.70
2022-11-14T13:01:14.810Z,10.90
2022-11-14T13:04:16.144Z,10.90
2022-11-14T13:07:33.857Z,9.90
2022-11-14T13:10:50.580Z,10.30
2022-11-14T13:14:19.331Z,9.50
2022-11-14T13:17:36.869Z,9.20
2022-11-14T13:20:47.544Z,10.40
2022-11-14T13:23:56.018Z,9.60
2022-11-14T13:26:50.501Z,10.10
2022-11-14T13:29:39.925Z,10.90
2022-11-14T13:32:41.418Z,15.00
2022-11-14T13:35:44.525Z,13.00
2022-11-14T13:38:59.574Z,26.00
2022-11-14T13:42:30.724Z,26.40
2022-11-14T13:48:47.725Z,12.40
2022-11-14T13:51:43.295Z,11.60
2022-11-14T13:54:30.760Z,14.40
2022-11-14T13:57:26.468Z,11.50
2022-11-14T14:00:20.718Z,12.60
2022-11-14T14:03:35.544Z,13.20
2022-11-14T14:06:30.910Z,12.90
2022-11-14T14:09:38.934Z,11.40
2022-11-14T14:12:51.347Z,15.80
2022-11-14T14:15:50.279Z,12.10
2022-11-14T14:18:49.662Z,14.20
2022-11-14T14:22:03.784Z,14.50
2022-11-14T14:24:57.429Z,17.10
2022-11-14T14:27:55.794Z,15.10
2022-11-14T14:31:01.477Z,13.60
2022-11-14T14:33:51.447Z,14.20
2022-11-14T14:36:49.892Z,12.80
2022-11-14T14:39:36.489Z,12.80
2022-11-14T14:42:23.074Z,14.40
2022-11-14T14:45:18.409Z,15.80
2022-11-14T14:48:23.919Z,17.80
2022-11-14T14:51:14.625Z,16.10
2022-11-14T14:54:02.065Z,15.10
2022-11-14T14:57:03.409Z,15.80
2022-11-14T15:00:08.104Z,19.20
2022-11-14T15:02:56.168Z,18.10
2022-11-14T15:05:42.581Z,17.80
2022-11-14T15:08:31.979Z,16.50
2022-11-14T15:11:18.905Z,16.90
2022-11-14T15:14:06.579Z,17.80
2022-11-14T15:16:54.142Z,16.90
2022-11-14T15:19:44.007Z,18.90
2022-11-14T15:22:30.359Z,18.10
2022-11-14T15:25:20.423Z,18.30
2022-11-14T15:28:19.917Z,17.10
2022-11-14T15:31:07.446Z,19.10
2022-11-14T15:34:21.972Z,20.20
2022-11-14T15:37:14.485Z,21.90
2022-11-14T15:40:19.704Z,20.80
2022-11-14T15:43:43.035Z,20.90
2022-11-14T15:46:29.266Z,20.60
2022-11-14T15:49:25.549Z,18.90
2022-11-14T15:52:40.933Z,18.60
2022-11-14T15:55:27.816Z,19.00
2022-11-14T15:58:27.613Z,20.40
2022-11-14T16:01:22.950Z,22.50
2022-11-14T16:04:18.148Z,22.80
2022-11-14T16:07:05.838Z,22.30
2022-11-14T16:09:52.298Z,21.30
2022-11-14T16:12:38.999Z,21.20
2022-11-14T16:15:25.532Z,20.70
2022-11-14T16:18:12.539Z,21.90
2022-11-14T16:20:59.661Z,23.70
2022-11-14T16:23:46.281Z,33.50
2022-11-14T16:26:33.101Z,41.60
2022-11-14T16:29:20.017Z,38.70
2022-11-14T16:32:09.202Z,41.10
2022-11-14T16:34:55.891Z,38.80
2022-11-14T16:37:42.953Z,36.20
2022-11-14T16:40:29.661Z,36.90
2022-11-14T16:43:16.128Z,36.90
2022-11-14T16:46:06.804Z,35.80
2022-11-14T16:48:55.120Z,35.80
2022-11-14T16:51:48.145Z,40.20
2022-11-14T16:54:35.893Z,50.60
2022-11-14T16:57:23.906Z,52.00
2022-11-14T17:00:12.827Z,65.50
2022-11-14T17:02:59.345Z,66.50
2022-11-14T17:05:48.006Z,63.60
2022-11-14T17:08:34.659Z,64.80
2022-11-14T17:11:21.611Z,67.40
2022-11-14T17:14:08.170Z,76.80
2022-11-14T17:16:55.159Z,83.80
2022-11-14T17:19:46.178Z,82.30
2022-11-14T17:22:32.895Z,81.10
2022-11-14T17:25:19.843Z,83.90
2022-11-14T17:28:06.223Z,87.00
2022-11-14T17:30:52.396Z,95.80
2022-11-14T17:33:39.182Z,95.80
2022-11-14T17:36:35.681Z,92.80
2022-11-14T17:39:22.908Z,96.10
2022-11-14T17:42:09.653Z,71.90
2022-11-14T17:45:00.899Z,62.30
2022-11-14T17:50:37.598Z,49.90
2022-11-14T17:53:24.575Z,47.90
2022-11-14T17:56:23.197Z,42.10
2022-11-14T17:59:09.647Z,40.40
2022-11-14T18:01:59.910Z,39.10
2022-11-14T18:04:47.201Z,37.90
2022-11-14T18:07:33.930Z,39.40
2022-11-14T18:10:20.432Z,39.30
2022-11-14T18:13:06.756Z,39.30
2022-11-14T18:15:53.536Z,37.80
2022-11-14T18:18:40.568Z,39.00
2022-11-14T18:21:27.426Z,35.70
2022-11-14T18:24:14.989Z,39.20
2022-11-14T18:27:01.574Z,50.10
2022-11-14T18:29:48.728Z,48.90
2022-11-14T18:32:35.327Z,53.50
2022-11-14T18:35:22.079Z,51.00
2022-11-14T18:38:08.797Z,50.90
2022-11-14T18:40:57.570Z,52.00
2022-11-14T18:43:45.608Z,50.00
2022-11-14T18:46:37.088Z,49.50
2022-11-14T18:49:25.310Z,47.30
2022-11-14T18:52:17.218Z,47.10
2022-11-14T18:55:05.689Z,49.30
2022-11-14T18:57:52.696Z,50.40
2022-11-14T19:00:39.473Z,55.80
2022-11-14T19:03:26.142Z,59.00
2022-11-14T19:06:14.012Z,60.90
2022-11-14T19:09:11.440Z,61.30
2022-11-14T19:12:17.185Z,62.20
2022-11-14T19:15:03.984Z,60.00
2022-11-14T19:17:50.474Z,60.50
2022-11-14T19:20:37.255Z,58.90
2022-11-14T19:23:24.078Z,59.70
2022-11-14T19:26:11.765Z,60.60
2022-11-14T19:29:04.159Z,63.70
2022-11-14T19:31:51.009Z,62.40
2022-11-14T19:34:37.615Z,60.50
2022-11-14T19:37:23.794Z,57.40
2022-11-14T19:40:11.140Z,60.70
2022-11-14T19:43:01.880Z,55.60
2022-11-14T19:45:48.820Z,59.00
2022-11-14T19:48:36.914Z,54.60
2022-11-14T19:51:24.244Z,53.80
2022-11-14T19:54:11.502Z,53.60
2022-11-14T19:56:57.695Z,50.20
2022-11-14T19:59:44.331Z,51.10
2022-11-14T20:02:30.962Z,50.80
2022-11-14T20:05:18.293Z,44.90
2022-11-14T20:08:05.754Z,44.50
2022-11-14T20:11:03.404Z,41.60
2022-11-14T20:13:50.048Z,39.80
2022-11-14T20:16:37.595Z,42.40
2022-11-14T20:19:24.237Z,44.50
2022-11-14T20:22:11.256Z,41.10
2022-11-14T20:24:57.837Z,41.00
2022-11-14T20:27:44.280Z,39.20
2022-11-14T20:30:31.146Z,39.40
2022-11-14T20:33:17.829Z,39.90
2022-11-14T20:36:07.444Z,41.70
2022-11-14T20:38:54.496Z,40.80
2022-11-14T20:41:41.196Z,40.80
2022-11-14T20:44:27.985Z,38.20
2022-11-14T20:47:14.820Z,38.40
2022-11-14T20:50:01.291Z,37.60
2022-11-14T20:52:48.552Z,37.90
2022-11-14T20:55:34.615Z,36.60
2022-11-14T20:58:21.340Z,39.40
2022-11-14T21:01:08.770Z,38.30
2022-11-14T21:03:55.580Z,37.90
2022-11-14T21:06:42.217Z,41.50
2022-11-14T21:09:28.639Z,40.70
2022-11-14T21:12:15.490Z,39.00
2022-11-14T21:15:02.405Z,39.10
2022-11-14T21:17:49.158Z,36.00
2022-11-14T21:20:35.826Z,33.40
2022-11-14T21:23:22.647Z,35.40
2022-11-14T21:26:17.053Z,35.50
2022-11-14T21:29:07.463Z,33.20
2022-11-14T21:31:55.865Z,30.50
2022-11-14T21:34:42.574Z,30.30
2022-11-14T21:37:29.039Z,28.20
2022-11-14T21:40:15.965Z,27.70
2022-11-14T21:43:02.655Z,26.10
2022-11-14T21:45:58.802Z,24.20
2022-11-14T21:48:47.203Z,22.60
2022-11-14T21:51:33.406Z,22.80
2022-11-14T21:54:20.217Z,22.40
2022-11-14T21:57:10.256Z,21.70
2022-11-14T21:59:57.366Z,23.10
2022-11-14T22:03:03.034Z,22.10
2022-11-14T22:05:55.747Z,23.10
2022-11-14T22:08:42.617Z,23.90
2022-11-14T22:11:29.185Z,23.00
2022-11-14T22:14:15.881Z,22.80
2022-11-14T22:17:02.408Z,23.50
2022-11-14T22:19:48.779Z,22.20
2022-11-14T22:22:35.728Z,22.40
2022-11-14T22:25:22.490Z,21.90
2022-11-14T22:28:09.146Z,20.40
2022-11-14T22:31:06.392Z,22.20
2022-11-14T22:33:54.231Z,24.20
2022-11-14T22:36:40.936Z,25.40
2022-11-14T22:39:27.543Z,25.70
2022-11-14T22:42:14.302Z,24.00
2022-11-14T22:45:01.374Z,23.30
2022-11-14T22:47:47.935Z,24.10
2022-11-14T22:50:34.403Z,22.70
2022-11-14T22:53:21.007Z,24.60
2022-11-14T22:56:10.284Z,22.70
2022-11-14T22:58:58.901Z,22.30
2022-11-14T23:01:45.298Z,21.10
2022-11-14T23:04:31.908Z,23.90
2022-11-14T23:07:18.338Z,25.10
2022-11-14T23:10:05.735Z,24.60
2022-11-14T23:12:52.125Z,23.40
2022-11-14T23:15:39.455Z,23.90
2022-11-14T23:18:26.468Z,23.60
2022-11-14T23:21:19.229Z,24.90
2022-11-14T23:24:11.771Z,24.20
2022-11-14T23:26:58.675Z,27.10
2022-11-14T23:29:45.085Z,24.10
2022-11-14T23:32:31.701Z,24.10
2022-11-14T23:35:18.181Z,22.80
2022-11-14T23:38:07.656Z,22.30
2022-11-14T23:41:00.027Z,21.20
2022-11-14T23:43:47.582Z,20.20
2022-11-14T23:46:34.130Z,22.10
2022-11-14T23:49:21.043Z,22.70
2022-11-14T23:52:07.852Z,23.60
2022-11-14T23:54:54.250Z,29.30
2022-11-14T23:57:41.165Z,28.80
